createdAt,value
2018-05-08T00:00:20.252Z,68.07
2018-05-08T00:02:48.644Z,67.71
2018-05-08T00:05:17.077Z,67.67
2018-05-08T00:07:44.664Z,67.92
2018-05-08T00:10:12.499Z,68.43
2018-05-08T00:12:40.059Z,68.28
2018-05-08T00:15:08.400Z,68.50
2018-05-08T00:17:36.546Z,68.37
2018-05-08T00:20:04.760Z,68.24
2018-05-08T00:22:32.295Z,68.64
2018-05-08T00:24:59.835Z,68.40
2018-05-08T00:27:27.405Z,68.53
2018-05-08T00:29:55.028Z,68.39
2018-05-08T00:32:22.591Z,68.53
2018-05-08T00:34:50.238Z,68.91
2018-05-08T00:37:18.715Z,68.80
2018-05-08T00:39:48.212Z,68.85
2018-05-08T00:42:15.755Z,68.80
2018-05-08T00:44:43.285Z,68.90
2018-05-08T00:47:10.861Z,68.96
2018-05-08T00:49:38.394Z,69.20
2018-05-08T00:52:06.710Z,69.85
2018-05-08T00:54:47.541Z,69.33
2018-05-08T00:57:15.090Z,69.38
2018-05-08T00:59:42.632Z,69.40
2018-05-08T01:02:10.835Z,69.63
2018-05-08T01:04:39.388Z,69.44
2018-05-08T01:07:07.665Z,69.47
2018-05-08T01:09:35.251Z,69.62
2018-05-08T01:12:02.805Z,69.79
2018-05-08T01:14:31.103Z,69.72
2018-05-08T01:16:58.677Z,69.54
2018-05-08T01:19:26.938Z,69.47
2018-05-08T01:21:55.663Z,69.42
2018-05-08T01:24:23.266Z,69.83
2018-05-08T01:26:50.849Z,69.48
2018-05-08T01:29:18.585Z,69.48
2018-05-08T01:31:46.121Z,69.34
2018-05-08T01:34:13.789Z,69.44
2018-05-08T01:36:41.930Z,69.30
2018-05-08T01:39:10.266Z,69.37
2018-05-08T01:41:37.829Z,69.68
2018-05-08T01:44:05.404Z,70.31
2018-05-08T01:46:32.983Z,69.89
2018-05-08T01:49:00.571Z,69.94
2018-05-08T01:51:28.593Z,70.33
2018-05-08T01:53:56.779Z,70.23
2018-05-08T01:56:24.552Z,70.16
2018-05-08T01:58:52.251Z,70.18
2018-05-08T02:01:20.301Z,70.23
2018-05-08T02:03:48.017Z,70.52
2018-05-08T02:06:16.024Z,70.68
2018-05-08T02:08:43.586Z,71.13
2018-05-08T02:11:11.155Z,70.98
2018-05-08T02:13:39.300Z,71.58
2018-05-08T02:16:07.382Z,71.87
2018-05-08T02:18:35.867Z,71.90
2018-05-08T02:21:03.436Z,72.00
2018-05-08T02:23:31.758Z,71.81
2018-05-08T02:25:59.375Z,71.92
2018-05-08T02:28:27.653Z,72.07
2018-05-08T02:30:55.361Z,72.41
2018-05-08T02:33:23.134Z,72.28
2018-05-08T02:35:51.481Z,72.85
2018-05-08T02:38:19.689Z,72.71
2018-05-08T02:40:47.282Z,72.38
2018-05-08T02:43:14.846Z,72.03
2018-05-08T02:45:42.429Z,71.96
2018-05-08T02:48:10.694Z,72.06
2018-05-08T02:50:38.241Z,72.45
2018-05-08T02:53:06.617Z,72.25
2018-05-08T02:55:34.226Z,72.27
2018-05-08T02:58:01.775Z,72.24
2018-05-08T03:00:30.078Z,72.39
2018-05-08T03:02:57.632Z,72.27
2018-05-08T03:05:26.265Z,72.38
2018-05-08T03:07:53.845Z,72.22
2018-05-08T03:10:21.685Z,72.21
2018-05-08T03:12:51.139Z,72.75
2018-05-08T03:15:19.700Z,72.25
2018-05-08T03:17:47.779Z,72.55
2018-05-08T03:20:15.344Z,72.81
2018-05-08T03:22:43.857Z,72.45
2018-05-08T03:25:11.398Z,72.58
2018-05-08T03:27:39.795Z,72.11
2018-05-08T03:30:07.576Z,71.97
2018-05-08T03:32:35.880Z,71.58
2018-05-08T03:35:03.432Z,71.01
2018-05-08T03:37:31.633Z,69.88
2018-05-08T03:39:59.156Z,68.65
2018-05-08T03:42:26.705Z,67.84
2018-05-08T03:44:54.339Z,66.91
2018-05-08T03:47:22.903Z,66.40
2018-05-08T03:49:50.451Z,66.02
2018-05-08T03:52:19.238Z,65.44
2018-05-08T03:54:47.131Z,64.99
2018-05-08T03:57:14.674Z,64.53
2018-05-08T03:59:42.272Z,64.32
2018-05-08T04:02:23.134Z,63.96
2018-05-08T04:05:03.043Z,63.69
2018-05-08T04:07:55.079Z,63.45
2018-05-08T04:10:23.447Z,63.98
2018-05-08T04:12:50.978Z,64.37
2018-05-08T04:15:19.116Z,64.67
2018-05-08T04:17:48.492Z,64.64
2018-05-08T04:20:16.023Z,64.78
2018-05-08T04:22:44.294Z,64.96
2018-05-08T04:25:11.857Z,65.19
2018-05-08T04:27:40.211Z,65.45
2018-05-08T04:30:08.148Z,65.85
2018-05-08T04:32:36.237Z,66.21
2018-05-08T04:35:03.770Z,66.91
2018-05-08T04:37:32.145Z,67.19
2018-05-08T04:39:59.685Z,67.43
2018-05-08T04:42:27.216Z,67.26
2018-05-08T04:44:54.783Z,67.68
2018-05-08T04:47:23.117Z,67.47
2018-05-08T04:49:50.631Z,67.48
2018-05-08T04:52:18.355Z,67.21
2018-05-08T04:54:45.934Z,67.14
2018-05-08T04:57:13.475Z,67.08
2018-05-08T04:59:41.022Z,66.68
2018-05-08T05:02:10.427Z,66.54
2018-05-08T05:04:37.988Z,66.49
2018-05-08T05:07:06.342Z,66.44
2018-05-08T05:09:35.377Z,66.84
2018-05-08T05:12:02.902Z,67.15
2018-05-08T05:14:31.377Z,67.20
2018-05-08T05:16:58.924Z,67.51
2018-05-08T05:19:27.001Z,67.25
2018-05-08T05:21:54.944Z,67.01
2018-05-08T05:24:23.028Z,66.83
2018-05-08T05:26:50.555Z,66.69
2018-05-08T05:29:18.775Z,66.22
2018-05-08T05:31:46.312Z,66.29
2018-05-08T05:34:13.871Z,65.60
2018-05-08T05:36:41.433Z,64.89
2018-05-08T05:39:09.719Z,64.65
2018-05-08T05:41:37.292Z,64.34
2018-05-08T05:44:04.863Z,63.85
2018-05-08T05:46:32.430Z,63.37
2018-05-08T05:49:00.712Z,63.18
2018-05-08T05:51:28.242Z,62.49
2018-05-08T05:53:56.800Z,62.37
2018-05-08T05:56:24.524Z,62.19
2018-05-08T05:58:52.323Z,61.62
2018-05-08T06:01:20.605Z,61.45
2018-05-08T06:03:48.712Z,60.80
2018-05-08T06:06:17.193Z,60.40
2018-05-08T06:08:44.675Z,60.01
2018-05-08T06:11:13.196Z,60.65
2018-05-08T06:13:41.252Z,60.82
2018-05-08T06:16:08.804Z,59.63
2018-05-08T06:18:37.027Z,59.01
2018-05-08T06:21:04.582Z,57.84
2018-05-08T06:23:32.663Z,57.35
2018-05-08T06:26:00.771Z,56.52
2018-05-08T06:28:29.207Z,56.81
2018-05-08T06:30:56.767Z,55.74
2018-05-08T06:33:24.495Z,55.33
2018-05-08T06:35:52.309Z,55.63
2018-05-08T06:38:20.326Z,55.09
2018-05-08T06:40:47.876Z,54.87
2018-05-08T06:43:15.417Z,55.10
2018-05-08T06:45:43.819Z,54.84
2018-05-08T06:48:12.154Z,54.45
2018-05-08T06:50:39.708Z,53.83
2018-05-08T06:53:07.243Z,53.77
2018-05-08T06:55:34.826Z,53.01
2018-05-08T06:58:02.381Z,52.40
2018-05-08T07:00:30.820Z,52.81
2018-05-08T07:02:58.383Z,52.77
2018-05-08T07:05:26.431Z,52.22
2018-05-08T07:07:54.031Z,50.85
2018-05-08T07:10:21.554Z,51.25
2018-05-08T07:12:49.130Z,51.18
2018-05-08T07:15:17.878Z,51.81
2018-05-08T07:17:46.088Z,51.24
2018-05-08T07:20:13.620Z,51.12
2018-05-08T07:22:41.767Z,50.20
2018-05-08T07:25:09.316Z,50.05
2018-05-08T07:27:36.851Z,49.53
2018-05-08T07:30:05.040Z,49.49
2018-05-08T07:32:32.596Z,48.93
2018-05-08T07:35:00.194Z,47.96
2018-05-08T07:37:28.419Z,47.87
2018-05-08T07:39:55.959Z,48.77
2018-05-08T07:42:23.547Z,47.86
2018-05-08T07:44:51.147Z,47.84
2018-05-08T07:47:19.717Z,48.16
2018-05-08T07:49:47.339Z,48.03
2018-05-08T07:52:14.876Z,47.51
2018-05-08T07:54:42.451Z,46.62
2018-05-08T07:57:10.019Z,46.79
2018-05-08T07:59:37.568Z,46.79
2018-05-08T08:02:05.674Z,47.50
2018-05-08T08:04:33.731Z,47.58
2018-05-08T08:07:01.920Z,47.09
2018-05-08T08:09:29.440Z,45.85
2018-05-08T08:11:56.973Z,46.04
2018-05-08T08:14:25.056Z,45.04
2018-05-08T08:16:52.602Z,45.12
2018-05-08T08:19:20.942Z,45.00
2018-05-08T08:21:49.125Z,44.12
2018-05-08T08:24:17.449Z,43.76
2018-05-08T08:26:45.004Z,43.49
2018-05-08T08:29:13.386Z,43.14
2018-05-08T08:31:40.989Z,43.23
2018-05-08T08:34:08.534Z,41.48
2018-05-08T08:36:36.116Z,41.41
2018-05-08T08:39:04.110Z,41.88
2018-05-08T08:41:31.734Z,41.12
2018-05-08T08:43:59.266Z,39.83
2018-05-08T08:46:26.879Z,40.06
2018-05-08T08:48:55.133Z,41.55
2018-05-08T08:51:22.701Z,40.97
2018-05-08T08:53:50.243Z,39.95
2018-05-08T08:56:17.831Z,40.42
2018-05-08T08:58:45.800Z,39.80
2018-05-08T09:01:14.043Z,40.26
2018-05-08T09:03:41.612Z,40.06
2018-05-08T09:06:09.735Z,40.15
2018-05-08T09:08:37.286Z,39.51
2018-05-08T09:11:04.834Z,39.65
2018-05-08T09:13:33.287Z,39.81
2018-05-08T09:16:00.823Z,39.80
2018-05-08T09:18:28.795Z,39.12
2018-05-08T09:20:56.328Z,39.32
2018-05-08T09:23:24.532Z,39.02
2018-05-08T09:25:52.221Z,38.90
2018-05-08T09:28:20.415Z,37.97
2018-05-08T09:30:47.955Z,37.95
2018-05-08T09:33:15.479Z,37.55
2018-05-08T09:35:43.048Z,37.47
2018-05-08T09:38:11.540Z,38.34
2018-05-08T09:40:39.095Z,38.05
2018-05-08T09:43:06.620Z,37.96
2018-05-08T09:45:34.188Z,37.96
2018-05-08T09:48:02.335Z,36.99
2018-05-08T09:50:29.864Z,36.94
2018-05-08T09:52:57.394Z,37.03
2018-05-08T09:55:25.055Z,36.82
2018-05-08T09:57:53.135Z,36.41
2018-05-08T10:00:20.693Z,34.97
2018-05-08T10:02:48.939Z,35.25
2018-05-08T10:05:17.367Z,35.73
2018-05-08T10:07:44.895Z,35.54
2018-05-08T10:10:12.478Z,35.10
2018-05-08T10:12:40.044Z,35.08
2018-05-08T10:15:08.080Z,33.88
2018-05-08T10:17:36.170Z,33.58
2018-05-08T10:20:03.731Z,32.98
2018-05-08T10:22:31.991Z,32.02
2018-05-08T10:24:59.507Z,31.72
2018-05-08T10:27:27.044Z,32.29
2018-05-08T10:29:55.135Z,32.20
2018-05-08T10:32:22.677Z,31.58
2018-05-08T10:34:50.218Z,31.58
2018-05-08T10:37:18.001Z,30.92
2018-05-08T10:39:46.217Z,31.15
2018-05-08T10:42:13.771Z,31.34
2018-05-08T10:44:41.311Z,30.98
2018-05-08T10:47:09.679Z,29.91
2018-05-08T10:49:37.217Z,30.44
2018-05-08T10:52:04.753Z,30.79
2018-05-08T10:54:33.871Z,31.53
2018-05-08T10:57:01.441Z,31.19
2018-05-08T10:59:28.986Z,32.63
2018-05-08T11:01:57.059Z,31.20
2018-05-08T11:04:24.599Z,30.03
2018-05-08T11:06:52.924Z,29.50
2018-05-08T11:09:20.483Z,30.90
2018-05-08T11:11:48.233Z,30.08
2018-05-08T11:14:16.929Z,29.39
2018-05-08T11:16:44.478Z,29.35
2018-05-08T11:19:12.471Z,28.89
2018-05-08T11:21:40.016Z,29.30
2018-05-08T11:24:08.421Z,29.74
2018-05-08T11:26:35.991Z,29.78
2018-05-08T11:29:04.172Z,30.04
2018-05-08T11:31:31.705Z,29.26
2018-05-08T11:34:00.147Z,28.46
2018-05-08T11:36:27.677Z,28.80
2018-05-08T11:38:55.788Z,30.00
2018-05-08T11:41:23.384Z,30.01
2018-05-08T11:43:51.070Z,29.66
2018-05-08T11:46:19.216Z,30.29
2018-05-08T11:48:47.448Z,28.82
2018-05-08T11:51:15.398Z,27.62
2018-05-08T11:53:42.944Z,27.97
2018-05-08T11:56:10.487Z,27.50
2018-05-08T11:58:38.040Z,28.23
2018-05-08T12:01:06.019Z,27.58
2018-05-08T12:03:33.551Z,27.80
2018-05-08T12:06:01.461Z,28.47
2018-05-08T12:08:29.005Z,27.52
2018-05-08T12:10:57.175Z,28.19
2018-05-08T12:13:24.729Z,28.30
2018-05-08T12:15:52.717Z,28.06
2018-05-08T12:18:21.000Z,28.70
2018-05-08T12:20:48.646Z,28.60
2018-05-08T12:23:16.883Z,27.08
2018-05-08T12:25:44.406Z,27.99
2018-05-08T12:28:12.400Z,28.31
2018-05-08T12:30:39.949Z,27.62
2018-05-08T12:33:07.491Z,27.60
2018-05-08T12:35:35.064Z,27.24
2018-05-08T12:38:03.051Z,27.86
2018-05-08T12:40:30.595Z,26.83
2018-05-08T12:42:58.236Z,26.56
2018-05-08T12:45:25.924Z,26.32
2018-05-08T12:47:53.984Z,27.12
2018-05-08T12:50:22.622Z,26.77
2018-05-08T12:52:50.133Z,27.45
2018-05-08T12:55:18.233Z,27.59
2018-05-08T12:57:45.806Z,27.43
2018-05-08T13:00:13.450Z,27.20
2018-05-08T13:02:41.539Z,27.37
2018-05-08T13:05:09.798Z,27.01
2018-05-08T13:07:37.763Z,27.62
2018-05-08T13:10:06.045Z,28.18
2018-05-08T13:12:33.679Z,27.60
2018-05-08T13:15:01.736Z,27.30
2018-05-08T13:17:29.872Z,27.16
2018-05-08T13:19:57.443Z,27.19
2018-05-08T13:22:25.767Z,27.43
2018-05-08T13:24:53.359Z,26.41
2018-05-08T13:27:20.970Z,26.65
2018-05-08T13:29:49.278Z,26.23
2018-05-08T13:32:16.934Z,26.44
2018-05-08T13:34:44.487Z,26.51
2018-05-08T13:37:12.035Z,27.04
2018-05-08T13:39:40.220Z,26.58
2018-05-08T13:42:07.751Z,26.30
2018-05-08T13:44:35.300Z,26.66
2018-05-08T13:47:03.451Z,26.03
2018-05-08T13:49:30.889Z,26.32
2018-05-08T13:51:58.419Z,26.18
2018-05-08T13:54:26.009Z,26.37
2018-05-08T13:56:53.657Z,26.14
2018-05-08T13:59:21.204Z,27.16
2018-05-08T14:01:49.439Z,27.42
2018-05-08T14:04:17.292Z,26.73
2018-05-08T14:06:46.211Z,26.63
2018-05-08T14:09:13.784Z,26.00
2018-05-08T14:11:41.395Z,26.59
2018-05-08T14:14:09.523Z,26.32
2018-05-08T14:16:37.215Z,25.86
2018-05-08T14:19:05.520Z,26.84
2018-05-08T14:21:33.075Z,26.87
2018-05-08T14:24:01.453Z,26.46
2018-05-08T14:26:29.061Z,26.69
2018-05-08T14:28:57.140Z,27.41
2018-05-08T14:31:24.711Z,26.53
2018-05-08T14:33:52.251Z,26.74
2018-05-08T14:36:19.802Z,26.63
2018-05-08T14:38:47.962Z,25.92
2018-05-08T14:41:15.486Z,26.81
2018-05-08T14:43:43.130Z,26.01
2018-05-08T14:46:11.368Z,26.29
2018-05-08T14:48:39.640Z,25.28
2018-05-08T14:51:07.206Z,25.23
2018-05-08T14:53:34.756Z,25.67
2018-05-08T14:56:02.334Z,25.81
2018-05-08T14:58:29.879Z,26.49
2018-05-08T15:00:58.098Z,26.00
2018-05-08T15:03:27.403Z,25.74
2018-05-08T15:05:55.943Z,25.98
2018-05-08T15:08:24.135Z,25.47
2018-05-08T15:10:51.811Z,25.76
2018-05-08T15:13:19.954Z,26.42
2018-05-08T15:15:48.255Z,26.67
2018-05-08T15:18:16.827Z,25.98
2018-05-08T15:20:44.643Z,26.03
2018-05-08T15:23:12.635Z,26.22
2018-05-08T15:25:40.764Z,25.67
2018-05-08T15:28:09.303Z,25.76
2018-05-08T15:30:36.847Z,25.45
2018-05-08T15:33:04.392Z,24.19
2018-05-08T15:35:31.971Z,24.18
2018-05-08T15:38:00.353Z,23.58
2018-05-08T15:40:27.898Z,23.31
2018-05-08T15:42:56.264Z,22.14
2018-05-08T15:45:24.603Z,22.29
2018-05-08T15:47:53.113Z,21.54
2018-05-08T15:50:20.811Z,20.76
2018-05-08T15:52:49.240Z,20.72
2018-05-08T15:55:16.831Z,20.23
2018-05-08T15:57:44.417Z,20.55
2018-05-08T16:00:11.990Z,19.47
2018-05-08T16:02:39.939Z,19.08
2018-05-08T16:05:08.340Z,19.42
2018-05-08T16:07:37.518Z,19.61
2018-05-08T16:10:05.075Z,19.56
2018-05-08T16:12:32.605Z,19.91
2018-05-08T16:15:00.826Z,20.10
2018-05-08T16:17:28.987Z,20.17
2018-05-08T16:19:56.551Z,19.99
2018-05-08T16:22:25.246Z,19.88
2018-05-08T16:24:53.563Z,19.66
2018-05-08T16:27:21.115Z,20.09
2018-05-08T16:29:49.230Z,19.88
2018-05-08T16:32:16.922Z,20.01
2018-05-08T16:34:44.455Z,19.83
2018-05-08T16:37:12.038Z,20.39
2018-05-08T16:39:40.523Z,20.50
2018-05-08T16:42:08.190Z,20.46
2018-05-08T16:44:35.723Z,20.08
2018-05-08T16:47:04.073Z,19.87
2018-05-08T16:49:32.091Z,19.66
2018-05-08T16:51:59.674Z,19.80
2018-05-08T16:54:27.801Z,19.50
2018-05-08T16:56:55.432Z,20.05
2018-05-08T16:59:25.992Z,20.20
2018-05-08T17:01:54.851Z,19.95
2018-05-08T17:04:22.496Z,20.19
2018-05-08T17:06:51.537Z,20.25
2018-05-08T17:09:19.152Z,20.41
2018-05-08T17:11:47.816Z,20.69
2018-05-08T17:14:16.009Z,21.16
2018-05-08T17:16:43.562Z,20.92
2018-05-08T17:19:11.952Z,21.29
2018-05-08T17:21:39.497Z,21.41
2018-05-08T17:24:07.802Z,21.38
2018-05-08T17:26:35.900Z,20.98
2018-05-08T17:29:04.266Z,21.18
2018-05-08T17:31:31.806Z,21.48
2018-05-08T17:33:59.368Z,21.24
2018-05-08T17:36:26.953Z,21.54
2018-05-08T17:38:55.785Z,21.47
2018-05-08T17:41:23.564Z,21.42
2018-05-08T17:43:51.121Z,22.02
2018-05-08T17:46:18.840Z,22.06
2018-05-08T17:48:46.855Z,22.14
2018-05-08T17:51:14.400Z,22.40
2018-05-08T17:53:42.672Z,22.98
2018-05-08T17:56:11.484Z,23.12
2018-05-08T17:58:39.019Z,23.34
2018-05-08T18:01:07.112Z,23.40
2018-05-08T18:03:34.652Z,23.38
2018-05-08T18:06:02.932Z,23.31
2018-05-08T18:08:30.459Z,23.86
2018-05-08T18:10:57.991Z,24.34
2018-05-08T18:13:26.415Z,24.73
2018-05-08T18:15:54.543Z,24.94
2018-05-08T18:18:22.786Z,25.74
2018-05-08T18:20:50.398Z,26.74
2018-05-08T18:23:18.772Z,27.46
2018-05-08T18:25:46.904Z,28.38
2018-05-08T18:28:15.238Z,29.28
2018-05-08T18:30:42.792Z,30.08
2018-05-08T18:33:11.045Z,30.64
2018-05-08T18:35:39.894Z,31.35
2018-05-08T18:38:07.432Z,31.78
2018-05-08T18:40:35.088Z,32.61
2018-05-08T18:43:02.657Z,33.09
2018-05-08T18:45:30.202Z,33.52
2018-05-08T18:47:58.196Z,33.91
2018-05-08T18:50:25.736Z,34.70
2018-05-08T18:52:54.000Z,35.12
2018-05-08T18:55:22.141Z,35.41
2018-05-08T18:57:49.882Z,35.75
2018-05-08T19:00:21.190Z,36.19
2018-05-08T19:02:49.087Z,36.23
2018-05-08T19:05:16.991Z,36.76
2018-05-08T19:07:44.542Z,36.95
2018-05-08T19:10:12.083Z,37.11
2018-05-08T19:12:40.350Z,37.71
2018-05-08T19:15:14.259Z,37.80
2018-05-08T19:17:42.736Z,38.00
2018-05-08T19:20:10.319Z,38.10
2018-05-08T19:22:38.504Z,38.71
2018-05-08T19:25:06.418Z,38.82
2018-05-08T19:27:34.563Z,39.27
2018-05-08T19:30:08.566Z,39.33
2018-05-08T19:32:36.630Z,39.50
2018-05-08T19:35:09.688Z,40.07
2018-05-08T19:37:42.847Z,40.18
2018-05-08T19:40:10.386Z,40.98
2018-05-08T19:42:37.982Z,41.28
2018-05-08T19:45:05.566Z,41.45
2018-05-08T19:47:33.600Z,41.91
2018-05-08T19:50:01.157Z,42.09
2018-05-08T19:52:29.435Z,42.07
2018-05-08T19:54:57.847Z,42.22
2018-05-08T19:57:25.505Z,42.80
2018-05-08T19:59:53.065Z,42.75
2018-05-08T20:02:21.452Z,43.29
2018-05-08T20:04:49.792Z,43.32
2018-05-08T20:07:17.319Z,43.93
2018-05-08T20:09:44.866Z,43.63
2018-05-08T20:12:13.056Z,43.83
2018-05-08T20:14:41.173Z,44.25
2018-05-08T20:17:08.709Z,44.33
2018-05-08T20:19:36.720Z,44.95
2018-05-08T20:22:05.404Z,44.40
2018-05-08T20:24:33.632Z,44.87
2018-05-08T20:27:01.780Z,45.64
2018-05-08T20:29:30.017Z,45.85
2018-05-08T20:31:57.951Z,45.70
2018-05-08T20:34:25.536Z,46.27
2018-05-08T20:36:53.323Z,46.29
2018-05-08T20:39:20.996Z,47.14
2018-05-08T20:41:48.532Z,47.10
2018-05-08T20:44:16.155Z,47.66
2018-05-08T20:46:43.735Z,47.49
2018-05-08T20:49:11.984Z,47.65
2018-05-08T20:51:39.473Z,47.76
2018-05-08T20:54:07.863Z,47.41
2018-05-08T20:56:35.391Z,47.95
2018-05-08T20:59:02.957Z,48.24
2018-05-08T21:01:31.441Z,48.03
2018-05-08T21:03:59.024Z,48.71
2018-05-08T21:06:27.867Z,48.42
2018-05-08T21:08:55.590Z,48.61
2018-05-08T21:11:23.347Z,49.30
2018-05-08T21:13:51.936Z,48.61
2018-05-08T21:16:19.462Z,49.34
2018-05-08T21:18:47.503Z,49.83
2018-05-08T21:21:15.079Z,49.39
2018-05-08T21:23:43.188Z,49.85
2018-05-08T21:26:11.417Z,50.04
2018-05-08T21:28:44.925Z,50.50
2018-05-08T21:31:14.183Z,50.53
2018-05-08T21:33:41.766Z,50.48
2018-05-08T21:36:09.379Z,50.43
2018-05-08T21:38:36.923Z,50.18
2018-05-08T21:41:04.591Z,51.19
2018-05-08T21:43:32.190Z,50.65
2018-05-08T21:45:59.726Z,50.49
2018-05-08T21:48:28.068Z,51.09
2018-05-08T21:50:55.718Z,51.47
2018-05-08T21:53:23.910Z,50.88
2018-05-08T21:55:51.476Z,51.76
2018-05-08T21:58:19.029Z,51.04
2018-05-08T22:00:47.016Z,51.80
2018-05-08T22:03:16.086Z,51.75
2018-05-08T22:05:44.408Z,52.04
2018-05-08T22:08:11.938Z,51.79
2018-05-08T22:10:39.481Z,52.19
2018-05-08T22:13:07.078Z,52.26
2018-05-08T22:15:35.194Z,51.87
2018-05-08T22:18:03.143Z,52.21
2018-05-08T22:20:30.671Z,52.24
2018-05-08T22:22:58.983Z,52.53
2018-05-08T22:25:27.516Z,52.82
2018-05-08T22:27:55.657Z,52.49
2018-05-08T22:30:23.783Z,52.06
2018-05-08T22:32:51.331Z,52.97
2018-05-08T22:35:18.883Z,52.54
2018-05-08T22:37:46.460Z,53.04
2018-05-08T22:40:13.998Z,53.05
2018-05-08T22:42:41.562Z,53.41
2018-05-08T22:45:09.859Z,53.01
2018-05-08T22:47:38.007Z,55.09
2018-05-08T22:50:05.551Z,54.79
2018-05-08T22:52:33.076Z,54.85
2018-05-08T22:55:01.199Z,55.54
2018-05-08T22:57:28.742Z,56.02
2018-05-08T22:59:56.295Z,55.66
2018-05-08T23:02:24.534Z,55.86
2018-05-08T23:04:52.767Z,55.57
2018-05-08T23:07:20.314Z,56.31
2018-05-08T23:09:48.643Z,55.24
2018-05-08T23:12:17.158Z,56.09
2018-05-08T23:14:45.389Z,56.53
2018-05-08T23:17:13.478Z,55.94
2018-05-08T23:19:41.555Z,56.91
2018-05-08T23:22:09.654Z,57.11
2018-05-08T23:24:37.594Z,57.11
2018-05-08T23:27:05.874Z,57.62
2018-05-08T23:29:34.197Z,57.01
2018-05-08T23:32:01.812Z,56.98
2018-05-08T23:34:29.346Z,57.37
2018-05-08T23:36:56.930Z,57.74
2018-05-08T23:39:24.518Z,57.19
2018-05-08T23:41:53.534Z,57.12
2018-05-08T23:44:21.058Z,57.30
2018-05-08T23:46:48.599Z,57.29
2018-05-08T23:49:16.822Z,57.13
2018-05-08T23:51:44.348Z,57.64
2018-05-08T23:54:12.586Z,57.54
2018-05-08T23:56:40.122Z,57.94
2018-05-08T23:59:07.654Z,57.83
